Latest Coastal Weather Observations for Yamba

IDN60701

Issued at 7:22 am EDT Monday 26 January 2015 (issued every 10 minutes, with the page automatically refreshed every 10 minutes)

About coastal observations | Map of coastal stations | Coastal observations for NSW | Marine services | Other Formats
Station Details ID: 058012 Name: YAMBA PILOT STATION Lat: -29.43 Lon: 153.36 Height: 27.4 m
Data from the previous 72 hours. | See also: Recent months at Yamba
Date/Time
EDT
Temp

°C
Wind Pressure Rain
since 9am
mm
Weather Cloud Vis
km
Sea
Height
m
Swell
Dir
 
Speed
knots
Gust
knots
hPa Trend Height
m
Period
s
Dir
26/07:00am 23.4 S 6 7 1007.3 - 7.8 - - - - - - -
26/06:30am 23.1 WNW 4 5 1006.8 - 7.8 - - - - - - -
26/06:00am 23.1 WNW 5 7 1006.1 - 7.8 - - - - - - -
26/05:30am 22.9 SW 5 8 1005.8 - 7.8 - - - - - - -
26/05:00am 22.9 WSW 6 8 1005.5 - 7.8 - - - - - - -
26/04:30am 23.0 W 6 8 1005.4 - 7.8 - - - - - - -
26/04:00am 22.8 W 6 9 1005.2 - 7.8 - - - - - - -
26/03:30am 22.8 WSW 7 9 1005.2 - 7.8 - - - - - - -
26/03:00am 22.9 W 7 10 1005.1 - 7.8 - - - - - - -
26/02:30am 22.9 W 6 8 1005.4 - 7.8 - - - - - - -
26/02:00am 22.9 W 7 10 1005.5 - 7.8 - - - - - - -
26/01:30am 23.0 W 7 9 1005.8 - 7.8 - - - - - - -
26/01:00am 23.2 W 7 10 1005.8 - 7.8 - - - - - - -
26/12:30am 23.4 SW 6 9 1005.9 - 7.8 - - - - - - -
26/12:00am 23.6 SW 7 9 1005.8 - 7.8 - - - - - - -
 
Date/Time
EDT
Temp

°C
Wind Pressure Rain
since 9am
mm
Weather Cloud Vis
km
Sea
Height
m
Swell
Dir
 
Speed
knots
Gust
knots
hPa Trend Height
m
Period
s
Dir
25/11:30pm 24.0 WSW 6 9 1006.1 - 7.8 - - - - - - -
25/11:00pm 24.2 WSW 7 9 1006.4 - 7.8 - - - - - - -
25/10:30pm 24.5 WSW 7 9 1006.4 - 7.8 - - - - - - -
25/10:00pm 25.1 WSW 5 8 1006.1 - 7.8 - - - - - - -
25/09:30pm 25.2 WSW 6 9 1005.9 - 7.8 - - - - - - -
25/09:00pm 25.2 NNW 5 8 1005.1 - 7.8 - - - - - - -
25/08:30pm 25.2 WNW 8 11 1005.3 - 7.8 - - - - - - -
25/08:00pm 26.3 W 4 6 1005.3 - 7.6 - - - - - - -
25/07:30pm 26.7 S 5 8 1004.7 - 7.6 - - - - - - -
25/07:00pm 26.9 N 3 5 1003.6 - 7.6 - - - - - - -
25/06:30pm 26.5 NE 3 5 1003.0 - 7.6 - - - - - - -
25/06:00pm 27.4 W 2 5 1003.7 - 7.6 - - - - - - -
25/05:30pm 25.3 W 5 8 1003.9 - 7.6 - - - - - - -
25/05:00pm 28.1 S 11 17 1004.0 - 0.0 - - - - - - -
25/04:30pm 28.9 NNE 7 10 1002.6 - 0.0 - - - - - - -
25/04:00pm 31.7 N 6 11 1002.6 - 0.0 - - - - - - -
25/03:30pm 30.9 N 5 8 1002.7 - 0.0 - - - - - - -
25/03:00pm 31.4 N 5 8 1002.4 - 0.0 - - - - - - -
25/02:30pm 32.0 N 4 6 1002.8 - 0.0 - - - - - - -
25/02:00pm 31.2 NNE 4 7 1003.1 - 0.0 - - - - - - -
25/01:30pm 31.3 NNE 4 7 1003.3 - 0.0 - - - - - - -
25/01:00pm 31.5 N 4 7 1003.6 - 0.0 - - - - - - -
25/12:30pm 32.0 N 4 6 1003.9 - 0.0 - - - - - - -
25/12:00pm 30.2 N 4 6 1004.2 - 0.0 - - - - - - -
25/11:30am 30.0 NNE 3 5 1004.4 - 0.0 - - - - - - -
25/11:00am 30.4 N 4 6 1004.5 - 0.0 - - - - - - -
25/10:30am 29.8 NW 4 6 1004.8 - 0.0 - - - - - - -
25/10:00am 29.1 NNW 5 7 1004.9 - 0.0 - - - - - - -
25/09:30am 27.9 NNW 5 8 1005.1 - 0.0 - - - - - - -
25/09:00am 26.5 NW 5 7 1005.0 - 0.0 - - - - - - -
25/08:30am 25.3 NW 5 7 1005.4 - 0.0 - - - - - - -
25/08:00am 24.1 NNW 4 6 1005.2 - 0.0 - - - - - - -
25/07:30am 23.3 NW 3 5 1005.2 - 0.0 - - - - - - -
25/07:00am 22.6 WNW 4 6 1005.3 - 0.0 - - - - - - -
25/06:30am 22.4 NNW 5 7 1004.8 - 0.0 - - - - - - -
25/06:00am 22.2 NNW 5 7 1004.2 - 0.0 - - - - - - -
25/05:30am 22.3 NNW 4 6 1004.3 - 0.0 - - - - - - -
25/05:00am 22.4 NNW 4 6 1004.3 - 0.0 - - - - - - -
25/04:30am 22.6 NNW 5 7 1004.1 - 0.0 - - - - - - -
25/04:00am 23.0 NNW 4 6 1004.3 - 0.0 - - - - - - -
25/03:30am 23.1 NW 4 5 1004.3 - 0.0 - - - - - - -
25/03:00am 23.4 NNW 3 5 1004.2 - 0.0 - - - - - - -
25/02:30am 23.7 NW 3 5 1004.8 - 0.0 - - - - - - -
25/02:00am 23.9 NW 3 4 1005.1 - 0.0 - - - - - - -
25/01:30am 23.9 NW 4 5 1005.6 - 0.0 - - - - - - -
25/01:00am 24.1 NW 3 4 1005.8 - 0.0 - - - - - - -
25/12:30am 24.2 SE 3 5 1006.1 - 0.0 - - - - - - -
25/12:00am 24.3 ESE 3 4 1006.0 - 0.0 - - - - - - -
 
Date/Time
EDT
Temp

°C
Wind Pressure Rain
since 9am
mm
Weather Cloud Vis
km
Sea
Height
m
Swell
Dir
 
Speed
knots
Gust
knots
hPa Trend Height
m
Period
s
Dir
24/11:30pm 24.4 ESE 3 4 1006.3 - 0.0 - - - - - - -
24/11:00pm 24.3 ESE 3 4 1006.5 - 0.0 - - - - - - -
24/10:30pm 24.4 E 1 4 1006.3 - 0.0 - - - - - - -
24/10:00pm 24.4 E 2 4 1006.1 - 0.0 - - - - - - -
24/09:30pm 24.7 E 2 4 1005.7 - 0.0 - - - - - - -
24/09:00pm 25.0 E 4 5 1005.3 - 0.0 - - - - - - -
24/08:30pm 25.1 E 3 4 1005.1 - 0.0 - - - - - - -
24/08:00pm 25.1 E 4 5 1005.0 - 0.0 - - - - - - -
24/07:30pm 25.6 E 4 6 1004.9 - 0.0 - - - - - - -
24/07:00pm 26.4 ESE 5 7 1004.8 - 0.0 - - - - - - -
24/06:30pm 26.7 ESE 7 9 1004.6 - 0.0 - - - - - - -
24/06:00pm 27.2 ESE 8 10 1004.5 - 0.0 - - - - - - -
24/05:30pm 27.1 SE 8 10 1004.7 - 0.0 - - - - - - -
24/05:00pm 27.1 SE 10 11 1004.8 - 0.0 - - - - - - -
24/04:30pm 27.0 SE 11 13 1005.1 - 0.0 - - - - - - -
24/04:00pm 27.1 SE 12 14 1005.4 - 0.0 - - - - - - -
24/03:30pm 27.2 SE 12 15 1006.0 - 0.0 - - - - - - -
24/03:00pm 27.3 SE 12 15 1006.2 - 0.0 - - - - - - -
24/02:30pm 27.3 SE 12 15 1006.2 - 0.0 - - - - - - -
24/02:00pm 27.4 SE 12 15 1006.5 - 0.0 - - - - - - -
24/01:30pm 27.6 SSE 12 16 1006.7 - 0.0 - - - - - - -
24/01:00pm 27.3 SSE 12 16 1006.7 - 0.0 - - - - - - -
24/12:30pm 26.9 SE 13 16 1007.0 - 0.0 - - - - - - -
24/12:00pm 27.2 SSE 12 16 1006.9 - 0.0 - - - - - - -
24/11:30am 27.1 SE 10 13 1007.4 - 0.0 - - - - - - -
24/11:00am 26.9 SSE 8 13 1007.4 - 0.0 - - - - - - -
24/10:30am 27.0 SE 7 9 1007.6 - 0.0 - - - - - - -
24/10:00am 26.0 SSE 7 8 1007.6 - 0.0 - - - - - - -
24/09:30am 25.7 SSE 7 8 1007.5 - 0.0 - - - - - - -
24/09:00am 25.7 SSE 6 9 1007.6 - 1.6 - - - - - - -
24/08:30am 24.9 S 6 8 1007.4 - 1.6 - - - - - - -
24/08:00am 24.0 S 5 6 1007.4 - 1.6 - - - - - - -
24/07:30am 23.3 SSW 4 5 1007.5 - 1.6 - - - - - - -
24/07:00am 23.2 SSW 6 8 1007.2 - 1.6 - - - - - - -
24/06:30am 23.4 E 6 9 1006.9 - 1.6 - - - - - - -
24/06:00am 24.5 SE 10 14 1006.3 - 1.6 - - - - - - -
24/05:30am 24.5 ESE 8 12 1006.2 - 1.6 - - - - - - -
24/05:00am 24.5 SE 11 13 1005.9 - 1.6 - - - - - - -
24/04:30am 24.4 ESE 10 12 1005.7 - 1.6 - - - - - - -
24/04:00am 24.4 SE 10 13 1005.7 - 1.6 - - - - - - -
24/03:30am 24.5 ESE 9 13 1005.7 - 1.6 - - - - - - -
24/03:00am 24.5 SE 10 12 1005.6 - 1.6 - - - - - - -
24/02:30am 24.5 ESE 9 12 1006.3 - 1.6 - - - - - - -
24/02:00am 24.5 ESE 7 10 1006.5 - 1.6 - - - - - - -
24/01:30am 24.7 ESE 9 11 1006.9 - 1.6 - - - - - - -
24/01:00am 24.8 E 9 12 1007.3 - 1.6 - - - - - - -
24/12:30am 24.7 E 7 11 1007.6 - 1.6 - - - - - - -
24/12:00am 24.7 E 7 10 1007.8 - 1.6 - - - - - - -
 
Date/Time
EDT
Temp

°C
Wind Pressure Rain
since 9am
mm
Weather Cloud Vis
km
Sea
Height
m
Swell
Dir
 
Speed
knots
Gust
knots
hPa Trend Height
m
Period
s
Dir
23/11:30pm 24.8 E 7 8 1008.2 - 1.6 - - - - - - -
23/11:00pm 24.8 E 6 9 1008.4 - 1.6 - - - - - - -
23/10:30pm 24.8 E 6 8 1008.5 - 1.6 - - - - - - -
23/10:00pm 24.7 E 7 10 1008.2 - 1.6 - - - - - - -
23/09:30pm 24.6 E 8 13 1008.1 - 1.6 - - - - - - -
23/09:00pm 24.8 E 9 13 1008.1 - 1.6 - - - - - - -
23/08:30pm 24.8 ESE 10 14 1008.1 - 1.6 - - - - - - -
23/08:00pm 24.5 ESE 7 12 1008.2 - 1.6 - - - - - - -
23/07:30pm 24.4 ESE 8 13 1008.2 - 1.6 - - - - - - -
23/07:00pm 24.3 ESE 7 9 1008.1 - 1.6 - - - - - - -
23/06:30pm 24.3 ESE 8 10 1007.9 - 1.4 - - - - - - -
23/06:00pm 24.7 ESE 7 10 1007.9 - 1.4 - - - - - - -
23/05:30pm 24.7 ESE 7 11 1008.1 - 1.4 - - - - - - -
23/05:00pm 25.0 ESE 8 11 1008.0 - 1.4 - - - - - - -
23/04:30pm 24.2 ESE 8 11 1007.9 - 1.4 - - - - - - -
23/04:00pm 24.1 ESE 8 11 1008.1 - 1.2 - - - - - - -
23/03:30pm 24.7 E 8 11 1008.4 - 0.8 - - - - - - -
23/03:00pm 24.4 E 6 9 1008.5 - 0.8 - - - - - - -
23/02:30pm 24.8 E 6 8 1008.7 - 0.4 - - - - - - -
23/02:00pm 25.0 E 7 9 1009.0 - 0.4 - - - - - - -
23/01:30pm 24.6 E 7 11 1009.4 - 0.4 - - - - - - -
23/01:00pm 24.6 E 7 11 1009.5 - 0.4 - - - - - - -
23/12:30pm 24.8 E 8 11 1009.8 - 0.2 - - - - - - -
23/12:00pm 25.3 E 7 11 1009.8 - 0.0 - - - - - - -
23/11:30am 26.1 E 8 11 1010.0 - 0.0 - - - - - - -
23/11:00am 26.1 E 8 13 1010.2 - 0.0 - - - - - - -
23/10:30am 25.8 E 8 11 1010.2 - 0.0 - - - - - - -
23/10:00am 25.7 E 8 14 1010.2 - 0.0 - - - - - - -
23/09:30am 25.7 E 9 15 1010.1 - 0.0 - - - - - - -
23/09:00am 26.0 E 9 13 1010.3 - 35.8 - - - - - - -
23/08:30am 25.5 E 9 14 1010.4 - 35.8 - - - - - - -
23/08:00am 25.3 E 9 13 1010.3 - 35.8 - - - - - - -
23/07:30am 25.2 E 10 14 1010.0 - 35.8 - - - - - - -

Other Formats:

Comma delimited format used in spreadsheet applications
http://www.bom.gov.au/fwo/IDN60701/IDN60701.94589.axf

JavaScript Object Notation format (JSON) in row-major order
http://www.bom.gov.au/fwo/IDN60701/IDN60701.94589.json